Time;durP1;ratioP1;P1;durP2;ratioP2;P2;SDS_P1;SDS_P2;PMS_P1;PMS_P2;Temp;Humidity;BMP_temperature;BMP_pressure;BME280_temperature;BME280_humidity;BME280_pressure;Samples;Min_cycle;Max_cycle;Signal;HPM_P1;HPM_P2
2022/10/28 00:01:59;;;;;;;35.47;20.43;;;;;;;7.87;79.81;101930.09;125008;1099;104196;-73
2022/10/28 00:04:30;;;;;;;35.03;20.00;;;;;;;7.88;79.74;101934.52;124619;1099;104245;-72
2022/10/28 00:07:01;;;;;;;35.80;21.03;;;;;;;7.91;79.95;101929.48;124567;1099;104345;-73
2022/10/28 00:09:32;;;;;;;38.23;21.30;;;;;;;7.96;79.38;101931.52;124570;1099;102183;-73
2022/10/28 00:12:03;;;;;;;36.17;20.80;;;;;;;7.99;79.77;101931.73;124586;1099;104243;-73
2022/10/28 00:14:34;;;;;;;36.93;20.27;;;;;;;8.00;79.42;101938.78;124581;1099;104194;-73
2022/10/28 00:17:06;;;;;;;35.73;19.77;;;;;;;7.96;80.13;101936.74;124595;1099;102885;-73
2022/10/28 00:19:36;;;;;;;33.57;19.93;;;;;;;7.88;79.53;101939.75;124562;1099;104219;-73
2022/10/28 00:22:10;;;;;;;35.70;19.40;;;;;;;7.83;79.41;101932.38;124560;1098;102845;-73
2022/10/28 00:24:41;;;;;;;33.75;18.90;;;;;;;7.82;79.87;101941.94;124616;1099;104179;-73
2022/10/28 00:27:12;;;;;;;35.77;19.47;;;;;;;7.81;79.91;101932.27;124626;1099;104236;-73
2022/10/28 00:29:43;;;;;;;34.10;18.97;;;;;;;7.79;80.31;101933.88;124615;1099;103018;-73
2022/10/28 00:32:14;;;;;;;32.87;19.17;;;;;;;7.75;80.01;101937.07;124518;1099;104747;-73
2022/10/28 00:34:45;;;;;;;32.50;18.63;;;;;;;7.70;80.08;101938.47;124536;1099;102870;-73
2022/10/28 00:37:16;;;;;;;35.50;19.80;;;;;;;7.67;80.52;101933.02;124590;1099;104229;-73
2022/10/28 00:39:47;;;;;;;34.83;20.20;;;;;;;7.63;80.17;101933.59;124627;1099;104194;-73
2022/10/28 00:42:21;;;;;;;34.63;20.07;;;;;;;7.60;80.30;101930.77;124573;1099;104249;-73
2022/10/28 00:44:58;;;;;;;33.33;19.73;;;;;;;7.61;80.34;101932.59;124547;1099;104165;-73
2022/10/28 00:47:37;;;;;;;36.63;19.47;;;;;;;7.62;80.38;101932.70;124551;1099;104695;-73
2022/10/28 00:50:41;;;;;;;35.30;20.67;;;;;;;7.63;80.18;101928.37;124581;1099;104255;-73
2022/10/28 00:53:17;;;;;;;32.60;19.57;;;;;;;7.63;80.43;101926.66;124574;1099;102821;-73
2022/10/28 00:55:49;;;;;;;33.20;19.83;;;;;;;7.61;80.52;101928.27;124545;1099;102896;-73
2022/10/28 00:58:23;;;;;;;35.87;19.83;;;;;;;7.60;80.65;101920.31;124598;1098;104175;-73
2022/10/28 01:00:54;;;;;;;34.00;19.75;;;;;;;7.58;80.70;101924.53;124545;1099;102826;-73
2022/10/28 01:03:26;;;;;;;36.60;20.97;;;;;;;7.55;80.90;101922.60;124621;1099;104332;-73
2022/10/28 01:05:57;;;;;;;35.30;20.57;;;;;;;7.53;81.06;101927.72;124594;1099;104181;-73
2022/10/28 01:08:28;;;;;;;35.27;19.77;;;;;;;7.52;80.70;101923.28;124635;1099;102345;-73
2022/10/28 01:11:33;;;;;;;37.37;21.13;;;;;;;7.52;80.78;101918.05;124511;1099;104227;-73
2022/10/28 01:14:25;;;;;;;36.58;20.32;;;;;;;7.53;80.83;101911.14;124546;1099;104210;-73
2022/10/28 01:17:20;;;;;;;33.40;20.37;;;;;;;7.54;80.75;101918.16;124621;1099;104245;-73
2022/10/28 01:20:40;;;;;;;36.67;20.50;;;;;;;7.53;80.63;101914.66;124589;1099;104198;-72
2022/10/28 01:23:19;;;;;;;34.03;20.73;;;;;;;7.51;81.02;101917.95;124118;1103;102994;-73
2022/10/28 01:26:06;;;;;;;33.30;20.77;;;;;;;7.47;81.09;101921.16;124049;1102;104204;-73
2022/10/28 01:29:00;;;;;;;36.27;20.87;;;;;;;7.41;80.92;101924.23;124466;1099;102087;-73
2022/10/28 01:31:40;;;;;;;39.17;21.63;;;;;;;7.34;81.38;101927.22;124565;1099;104182;-73
2022/10/28 01:34:21;;;;;;;36.50;22.63;;;;;;;7.26;81.27;101923.13;124553;1099;104193;-73
2022/10/28 01:36:59;;;;;;;36.23;21.50;;;;;;;7.20;80.96;101928.84;124570;1099;104204;-73
2022/10/28 01:39:40;;;;;;;36.27;21.43;;;;;;;7.16;81.61;101926.80;124588;1099;104063;-73
2022/10/28 01:42:23;;;;;;;39.80;22.60;;;;;;;7.13;81.73;101930.08;124623;1099;104303;-73
2022/10/28 01:45:03;;;;;;;35.40;21.90;;;;;;;7.13;81.37;101926.57;124633;1099;104344;-73
2022/10/28 01:47:40;;;;;;;37.53;22.73;;;;;;;7.11;81.45;101920.34;124606;1099;104243;-73
2022/10/28 01:50:18;;;;;;;39.27;22.37;;;;;;;7.11;81.32;101918.63;124592;1099;104249;-72
2022/10/28 01:52:53;;;;;;;36.97;22.30;;;;;;;7.15;81.65;101907.63;124584;1099;104198;-73
2022/10/28 01:55:29;;;;;;;38.53;22.07;;;;;;;7.24;81.90;101906.46;124576;1099;104188;-73
2022/10/28 01:58:03;;;;;;;37.13;21.40;;;;;;;7.32;81.55;101905.30;124569;1099;110668;-72
2022/10/28 02:00:35;;;;;;;38.90;22.85;;;;;;;7.35;81.50;101905.52;124650;1099;104194;-73
2022/10/28 02:03:08;;;;;;;37.03;22.80;;;;;;;7.40;81.52;101901.52;124604;1099;102940;-73
2022/10/28 02:05:43;;;;;;;39.77;22.37;;;;;;;7.43;81.44;101904.34;124573;1099;104229;-73
2022/10/28 02:08:35;;;;;;;35.53;21.20;;;;;;;7.38;81.52;101901.41;124762;1099;102812;-73
2022/10/28 02:11:31;;;;;;;37.70;21.37;;;;;;;7.33;81.33;101907.12;124613;1099;104274;-74
2022/10/28 02:14:12;;;;;;;34.90;21.03;;;;;;;7.24;81.70;101912.58;124612;1099;104721;-73
2022/10/28 02:16:50;;;;;;;37.03;22.50;;;;;;;7.19;81.72;101908.73;124536;1099;102813;-73
2022/10/28 02:19:35;;;;;;;37.40;21.45;;;;;;;7.13;81.24;101910.91;124552;1099;104076;-73
2022/10/28 02:22:20;;;;;;;35.50;20.57;;;;;;;7.10;81.61;101906.36;124607;1099;104192;-73
2022/10/28 02:25:12;;;;;;;36.57;21.17;;;;;;;7.13;81.51;101911.80;124585;1099;104323;-73
2022/10/28 02:27:47;;;;;;;37.37;21.77;;;;;;;7.13;81.44;101905.69;124587;1099;104178;-73
2022/10/28 02:30:21;;;;;;;36.43;21.70;;;;;;;7.14;81.56;101905.80;124619;1099;104405;-73
2022/10/28 02:32:53;;;;;;;;;;;;;;;7.13;81.43;101909.20;124610;1099;103391;-73
2022/10/28 02:35:31;;;;;;;34.83;19.80;;;;;;;7.07;81.36;101908.75;124614;1099;104223;-73
2022/10/28 02:38:07;;;;;;;35.00;20.83;;;;;;;6.99;81.60;101908.19;124589;1099;104281;-73
2022/10/28 02:40:39;;;;;;;53.97;20.37;;;;;;;6.95;81.62;101911.39;124625;1099;104252;-73
2022/10/28 02:43:14;;;;;;;59.23;21.57;;;;;;;6.88;82.02;101908.23;124596;1099;104175;-73
2022/10/28 02:45:44;;;;;;;;;;;;;;;6.79;82.31;101903.23;124598;1098;104242;-73
2022/10/28 02:48:21;;;;;;;72.53;20.30;;;;;;;6.72;82.11;101903.59;124638;1099;104335;-73
2022/10/28 02:50:57;;;;;;;69.43;20.20;;;;;;;6.67;81.93;101903.25;124553;1098;104283;-73
2022/10/28 02:53:33;;;;;;;52.97;20.67;;;;;;;6.66;81.99;101901.42;124623;1099;104169;-73
2022/10/28 02:56:08;;;;;;;36.80;20.10;;;;;;;6.69;81.78;101899.05;124701;1098;103094;-73
2022/10/28 02:58:42;;;;;;;73.77;21.47;;;;;;;6.73;82.27;101903.70;124615;1099;104274;-73
2022/10/28 03:01:13;;;;;;;51.67;20.67;;;;;;;6.75;82.07;101907.33;124686;1098;102841;-73
2022/10/28 03:03:44;;;;;;;76.80;20.00;;;;;;;6.76;81.97;101901.33;124674;1099;102904;-73
2022/10/28 03:06:15;;;;;;;84.30;22.13;;;;;;;6.79;82.17;101904.16;124626;1099;104242;-73
2022/10/28 03:08:46;;;;;;;92.80;21.37;;;;;;;6.81;81.87;101907.78;124679;1099;104274;-73
2022/10/28 03:11:19;;;;;;;91.47;20.10;;;;;;;6.79;82.15;101898.94;124684;1099;104405;-73
2022/10/28 03:13:50;;;;;;;55.73;18.43;;;;;;;6.76;81.93;101901.33;124599;1099;104236;-73
2022/10/28 03:16:21;;;;;;;48.67;19.17;;;;;;;6.72;82.30;101899.27;124573;1099;104216;-73
2022/10/28 03:18:52;;;;;;;35.43;17.80;;;;;;;6.66;82.49;101898.81;124551;1099;104190;-73
2022/10/28 03:21:23;;;;;;;34.70;18.13;;;;;;;6.59;82.52;101893.94;124605;1099;103314;-73
2022/10/28 03:23:54;;;;;;;35.07;16.77;;;;;;;6.51;82.16;101895.08;124541;1098;104211;-73
2022/10/28 03:26:25;;;;;;;38.83;16.87;;;;;;;6.44;81.99;101892.01;124609;1099;104187;-73
2022/10/28 03:28:56;;;;;;;39.37;18.23;;;;;;;6.41;82.33;101894.38;124575;1099;104165;-73
2022/10/28 03:31:27;;;;;;;54.80;18.20;;;;;;;6.39;82.43;101895.98;124633;1099;104197;-73
2022/10/28 03:33:59;;;;;;;44.63;16.43;;;;;;;6.39;82.47;101885.55;124530;1099;104173;-73
2022/10/28 03:36:30;;;;;;;46.63;17.03;;;;;;;6.37;82.29;101891.44;124583;1099;104057;-73
2022/10/28 03:39:01;;;;;;;49.23;17.70;;;;;;;6.36;82.60;101890.54;124539;1099;104236;-73
2022/10/28 03:41:32;;;;;;;41.70;17.17;;;;;;;6.36;82.60;101887.93;124597;1099;102851;-73
2022/10/28 03:44:04;;;;;;;42.87;17.90;;;;;;;6.40;82.60;101884.73;124658;1099;104248;-73
2022/10/28 03:46:35;;;;;;;39.90;18.67;;;;;;;6.46;82.72;101879.08;124644;1099;104406;-73
2022/10/28 03:49:06;;;;;;;34.87;17.50;;;;;;;6.53;82.71;101881.37;124535;1099;102222;-73
2022/10/28 03:51:37;;;;;;;37.77;18.67;;;;;;;6.53;82.68;101888.26;124616;1099;104242;-73
2022/10/28 03:54:08;;;;;;;37.60;17.90;;;;;;;6.51;82.35;101885.54;124619;1099;104244;-73
2022/10/28 03:56:40;;;;;;;59.25;15.90;;;;;;;6.47;82.19;101889.62;124590;1099;104251;-72
2022/10/28 03:59:12;;;;;;;53.03;16.77;;;;;;;6.43;82.35;101890.18;124612;1099;104169;-73
2022/10/28 04:01:43;;;;;;;43.20;18.43;;;;;;;6.37;82.57;101891.44;124529;1099;104459;-73
2022/10/28 04:04:14;;;;;;;45.97;18.73;;;;;;;6.35;82.54;101890.42;124611;1099;102867;-73
2022/10/28 04:06:45;;;;;;;61.07;16.90;;;;;;;6.33;82.44;101899.80;124629;1098;104195;-72
2022/10/28 04:09:16;;;;;;;64.77;17.30;;;;;;;6.27;82.52;101900.27;124398;1099;104278;-72
2022/10/28 04:11:49;;;;;;;58.67;17.03;;;;;;;6.22;82.58;101899.03;124696;1099;104504;-73
2022/10/28 04:14:20;;;;;;;51.97;17.73;;;;;;;6.20;82.72;101897.98;124655;1098;104242;-73
2022/10/28 04:16:51;;;;;;;77.90;17.90;;;;;;;6.23;82.72;101896.53;124229;1099;102984;-73
2022/10/28 04:19:22;;;;;;;70.70;17.40;;;;;;;6.28;82.99;101897.78;124703;1099;104245;-73
2022/10/28 04:21:53;;;;;;;49.27;18.00;;;;;;;6.36;82.90;101895.75;124747;1099;102918;-73
2022/10/28 04:24:24;;;;;;;35.70;18.37;;;;;;;6.44;83.04;101894.61;124685;1099;102842;-73
2022/10/28 04:26:55;;;;;;;37.37;18.03;;;;;;;6.50;83.20;101898.47;124653;1099;104172;-73
2022/10/28 04:29:26;;;;;;;44.17;18.60;;;;;;;6.55;83.22;101895.41;124666;1099;104210;-73
2022/10/28 04:31:58;;;;;;;52.53;18.70;;;;;;;6.57;83.06;101905.96;124357;1099;104200;-73
2022/10/28 04:34:29;;;;;;;42.17;18.00;;;;;;;6.56;83.05;101904.14;124744;1099;104194;-73
2022/10/28 04:37:00;;;;;;;46.83;16.77;;;;;;;6.51;82.93;101906.41;124681;1099;102257;-72
2022/10/28 04:39:31;;;;;;;61.40;17.60;;;;;;;6.44;82.93;101898.94;124648;1099;104172;-72
2022/10/28 04:42:03;;;;;;;46.20;18.17;;;;;;;6.34;83.33;101881.67;124616;1099;104249;-73
2022/10/28 04:44:34;;;;;;;35.67;17.80;;;;;;;6.46;83.27;101893.02;124650;1098;104335;-72
2022/10/28 04:47:05;;;;;;;37.30;16.97;;;;;;;6.52;83.52;101889.97;124694;1099;104233;-73
2022/10/28 04:49:36;;;;;;;48.47;17.57;;;;;;;6.57;83.33;101892.92;124367;1099;102816;-73
2022/10/28 04:52:07;;;;;;;33.13;17.07;;;;;;;6.64;83.77;101888.27;124162;1099;104233;-72
2022/10/28 04:54:38;;;;;;;31.37;17.00;;;;;;;6.69;83.72;101888.61;124344;1099;104344;-72
2022/10/28 04:57:10;;;;;;;33.07;16.27;;;;;;;6.76;83.66;101889.95;124379;1099;104213;-72
2022/10/28 04:59:41;;;;;;;29.60;15.40;;;;;;;6.81;83.65;101888.62;124252;1099;104245;-72
2022/10/28 05:02:12;;;;;;;29.63;15.73;;;;;;;6.88;83.67;101884.74;124412;1099;104185;-72
2022/10/28 05:04:43;;;;;;;28.30;15.67;;;;;;;6.95;83.74;101887.91;124770;1098;104182;-73
2022/10/28 05:07:14;;;;;;;26.80;14.95;;;;;;;7.03;83.61;101883.25;124888;1099;102327;-73
2022/10/28 05:09:46;;;;;;;29.67;15.73;;;;;;;7.10;83.70;101890.70;124830;1099;104201;-74
2022/10/28 05:12:17;;;;;;;28.40;16.23;;;;;;;7.17;83.77;101887.74;124977;1099;102478;-72
2022/10/28 05:14:48;;;;;;;25.80;14.57;;;;;;;7.18;83.64;101905.23;124606;1099;104102;-73
2022/10/28 05:17:19;;;;;;;27.57;15.37;;;;;;;7.17;83.65;101890.36;124941;1099;104304;-74
2022/10/28 05:19:50;;;;;;;26.80;15.17;;;;;;;7.23;83.79;101895.13;124814;1099;106458;-73
2022/10/28 05:22:21;;;;;;;32.80;16.90;;;;;;;7.30;83.68;101897.35;124694;1099;105507;-73
2022/10/28 05:24:52;;;;;;;30.23;16.70;;;;;;;7.36;83.80;101899.50;124615;1099;102837;-73
2022/10/28 05:27:25;;;;;;;28.07;15.03;;;;;;;7.44;84.04;101897.44;124595;1099;104263;-73
2022/10/28 05:29:56;;;;;;;25.93;15.33;;;;;;;7.47;84.04;101908.10;124653;1099;103215;-75
2022/10/28 05:32:27;;;;;;;30.50;16.23;;;;;;;7.52;83.77;101906.71;124635;1098;103986;-74
2022/10/28 05:34:59;;;;;;;27.80;15.13;;;;;;;7.56;84.00;101907.03;124560;1099;103635;-73
2022/10/28 05:37:30;;;;;;;31.40;17.20;;;;;;;7.64;83.81;101911.91;124213;1099;103095;-73
2022/10/28 05:40:02;;;;;;;30.80;16.10;;;;;;;7.74;84.06;101909.11;124605;1099;102683;-73
2022/10/28 05:42:33;;;;;;;28.60;16.00;;;;;;;7.82;83.91;101909.65;124704;1099;109030;-73
2022/10/28 05:45:09;;;;;;;27.47;15.33;;;;;;;7.88;83.52;101913.62;124612;1099;104204;-74
2022/10/28 05:47:58;;;;;;;31.00;16.37;;;;;;;7.98;84.34;101917.77;125785;1099;102402;-74
2022/10/28 05:50:32;;;;;;;44.40;24.67;;;;;;;8.02;83.98;101913.64;125944;1098;102404;-73
2022/10/28 05:53:16;;;;;;;54.87;28.53;;;;;;;8.04;84.07;101915.57;124588;1099;119037;-73
2022/10/28 05:55:47;;;;;;;73.78;36.60;;;;;;;8.04;83.64;101927.71;124596;1099;104182;-73
2022/10/28 05:58:18;;;;;;;75.23;39.13;;;;;;;8.08;83.91;101924.52;124636;1099;104323;-73
2022/10/28 06:00:49;;;;;;;76.17;38.50;;;;;;;8.13;83.79;101916.99;124635;1099;104682;-73
2022/10/28 06:03:23;;;;;;;66.60;36.87;;;;;;;8.16;84.00;101909.36;124605;1099;101823;-73
2022/10/28 06:05:59;;;;;;;70.53;35.10;;;;;;;8.20;83.54;101917.52;124641;1099;103055;-73
2022/10/28 06:08:33;;;;;;;63.97;34.93;;;;;;;8.28;83.95;101915.42;124680;1099;102316;-73
2022/10/28 06:11:06;;;;;;;62.60;33.80;;;;;;;8.38;84.32;101915.25;124631;1099;104182;-73
2022/10/28 06:13:41;;;;;;;57.00;29.87;;;;;;;8.47;83.82;101914.97;124237;1099;110779;-72
2022/10/28 06:16:14;;;;;;;51.50;29.07;;;;;;;8.59;83.96;101914.89;124671;1099;104235;-73
2022/10/28 06:18:48;;;;;;;57.60;30.77;;;;;;;8.62;83.72;101923.84;124744;1099;104369;-73
2022/10/28 06:21:20;;;;;;;64.13;31.90;;;;;;;8.56;83.80;101922.54;125486;1099;104147;-72
2022/10/28 06:23:53;;;;;;;61.60;32.67;;;;;;;8.43;83.06;101931.22;124691;1099;104180;-73
2022/10/28 06:26:27;;;;;;;49.33;26.40;;;;;;;8.37;83.63;101921.27;124565;1099;104233;-72
2022/10/28 06:29:02;;;;;;;39.77;21.93;;;;;;;8.44;83.97;101928.73;124724;1099;103944;-72
2022/10/28 06:31:35;;;;;;;41.67;22.90;;;;;;;8.44;83.45;101928.73;124720;1099;101940;-75
2022/10/28 06:34:13;;;;;;;39.83;23.10;;;;;;;8.37;83.43;101912.53;124282;1099;107002;-75
2022/10/28 06:36:59;;;;;;;38.00;22.17;;;;;;;8.49;83.42;101928.16;124762;1099;102320;-74
2022/10/28 06:39:33;;;;;;;38.37;21.63;;;;;;;8.54;83.81;101929.36;125172;1099;104172;-75
2022/10/28 06:42:11;;;;;;;39.63;23.37;;;;;;;8.66;83.73;101927.56;124624;1099;104160;-74
2022/10/28 06:44:44;;;;;;;40.93;22.80;;;;;;;8.73;84.16;101921.05;124753;1099;104188;-74
2022/10/28 06:47:18;;;;;;;43.83;23.45;;;;;;;8.78;83.83;101909.16;124417;1099;104220;-75
2022/10/28 06:49:52;;;;;;;37.15;22.62;;;;;;;8.96;84.25;101928.69;124395;1099;104217;-75
2022/10/28 06:52:28;;;;;;;39.47;22.87;;;;;;;9.11;84.11;101926.13;124364;1099;104686;-75
2022/10/28 06:55:01;;;;;;;40.53;22.97;;;;;;;9.27;84.12;101919.26;124803;1099;104249;-75
2022/10/28 06:57:35;;;;;;;40.48;23.07;;;;;;;9.43;83.41;101918.54;124796;1099;104332;-74
2022/10/28 07:00:12;;;;;;;41.83;23.70;;;;;;;9.56;84.00;101918.48;125086;1099;104316;-75
2022/10/28 07:02:52;;;;;;;40.53;24.03;;;;;;;9.69;84.00;101910.58;124809;1099;104283;-75
2022/10/28 07:05:28;;;;;;;39.03;22.43;;;;;;;9.82;84.09;101917.48;124295;1099;102908;-73
2022/10/28 07:08:02;;;;;;;44.17;22.57;;;;;;;9.94;84.24;101906.84;124780;1099;104238;-74
2022/10/28 07:10:37;;;;;;;40.50;22.05;;;;;;;10.05;84.30;101907.46;124709;1099;104220;-74
2022/10/28 07:13:11;;;;;;;35.93;21.60;;;;;;;10.16;83.66;101914.28;124295;1099;103204;-74
2022/10/28 07:15:45;;;;;;;41.17;22.97;;;;;;;10.26;83.75;101914.00;126018;1098;105753;-74
2022/10/28 07:18:19;;;;;;;39.10;22.82;;;;;;;10.36;83.38;101919.83;124735;1099;102812;-74
2022/10/28 07:20:52;;;;;;;42.58;24.02;;;;;;;10.45;84.01;101911.61;125222;1099;104194;-74
2022/10/28 07:23:24;;;;;;;;;;;;;;;10.55;83.42;101895.56;124888;1099;103812;-74
2022/10/28 07:25:59;;;;;;;43.00;23.77;;;;;;;10.66;83.40;101907.61;124294;1099;104284;-74
2022/10/28 07:28:31;;;;;;;44.88;25.48;;;;;;;10.74;83.43;101902.80;124817;1099;104163;-74
2022/10/28 07:31:05;;;;;;;48.63;26.70;;;;;;;10.81;83.28;101904.05;124321;1099;104008;-75
2022/10/28 07:33:39;;;;;;;41.40;24.90;;;;;;;10.92;83.66;101903.86;124786;1099;104299;-74
2022/10/28 07:36:13;;;;;;;45.40;25.77;;;;;;;11.04;83.33;101907.98;124744;1099;104223;-73
2022/10/28 07:38:51;;;;;;;47.20;25.43;;;;;;;11.13;83.18;101906.77;124745;1099;102819;-74
2022/10/28 07:41:23;;;;;;;43.43;24.37;;;;;;;11.28;83.50;101908.43;124758;1099;104190;-74
2022/10/28 07:43:56;;;;;;;41.87;24.60;;;;;;;11.27;82.35;101911.90;124899;1099;102645;-74
2022/10/28 07:46:30;;;;;;;40.30;22.17;;;;;;;11.28;82.53;101908.43;124353;1099;103947;-73
2022/10/28 07:49:04;;;;;;;35.28;20.82;;;;;;;11.33;81.99;101912.23;124786;1099;102812;-73
2022/10/28 07:51:38;;;;;;;34.90;21.33;;;;;;;11.37;82.29;101914.20;124799;1098;103952;-74
2022/10/28 07:54:16;;;;;;;45.23;21.90;;;;;;;11.41;81.99;101924.06;124822;1099;104207;-74
2022/10/28 07:56:50;;;;;;;36.10;20.95;;;;;;;11.42;81.53;101927.59;125978;1098;103641;-74
2022/10/28 07:59:24;;;;;;;38.63;21.05;;;;;;;11.42;82.13;101918.00;124704;1099;102520;-73
2022/10/28 08:02:05;;;;;;;36.63;22.00;;;;;;;11.55;82.36;101919.56;125170;1099;101859;-75
2022/10/28 08:04:37;;;;;;;40.40;21.43;;;;;;;11.62;82.39;101915.53;124764;1099;104881;-74
2022/10/28 08:07:11;;;;;;;41.80;22.20;;;;;;;11.74;81.93;101931.08;124752;1099;104051;-73
2022/10/28 08:09:45;;;;;;;38.78;22.48;;;;;;;11.83;82.15;101927.20;124864;1099;101971;-74
2022/10/28 08:12:26;;;;;;;40.50;22.93;;;;;;;11.90;81.51;101936.32;124755;1099;102864;-72
2022/10/28 08:15:03;;;;;;;42.50;22.63;;;;;;;11.92;81.14;101937.36;124771;1099;102584;-72
2022/10/28 08:17:45;;;;;;;38.47;22.20;;;;;;;11.96;81.10;101933.16;124863;1099;103467;-72
2022/10/28 08:20:29;;;;;;;43.28;22.85;;;;;;;12.06;81.52;101935.47;124852;1099;103941;-73
2022/10/28 08:23:08;;;;;;;44.03;22.47;;;;;;;12.09;80.78;101935.63;124720;1099;103935;-73
2022/10/28 08:25:53;;;;;;;42.17;22.23;;;;;;;12.09;80.77;101926.80;124807;1098;102626;-73
2022/10/28 08:28:28;;;;;;;37.05;21.35;;;;;;;12.15;81.04;101924.50;124624;1099;102652;-72
2022/10/28 08:31:04;;;;;;;42.93;22.70;;;;;;;12.30;81.33;101937.56;124636;1099;103879;-72
2022/10/28 08:33:46;;;;;;;46.17;23.00;;;;;;;12.43;81.32;101936.45;124628;1099;104006;-73
2022/10/28 08:36:24;;;;;;;131.60;91.33;;;;;;;12.52;81.33;101929.91;124500;1099;111851;-72
2022/10/28 08:39:00;;;;;;;45.93;26.07;;;;;;;12.67;81.42;101926.23;124619;1099;103967;-73
2022/10/28 08:41:40;;;;;;;45.30;24.47;;;;;;;12.79;81.32;101929.48;124588;1099;104164;-72
2022/10/28 08:44:49;;;;;;;43.83;22.83;;;;;;;12.92;81.01;101931.02;124630;1098;102607;-73
2022/10/28 08:47:34;;;;;;;44.10;23.33;;;;;;;13.02;81.13;101927.97;124599;1099;104069;-72
2022/10/28 08:50:14;;;;;;;43.07;22.43;;;;;;;13.12;80.86;101914.42;124634;1099;104034;-72
2022/10/28 08:52:51;;;;;;;50.40;23.07;;;;;;;13.22;81.19;101923.66;124674;1098;104206;-73
2022/10/28 08:55:30;;;;;;;41.17;21.90;;;;;;;13.31;80.46;101910.92;124684;1099;102082;-73
2022/10/28 08:58:08;;;;;;;48.20;23.20;;;;;;;13.43;80.89;101908.00;124609;1099;103981;-72
2022/10/28 09:00:43;;;;;;;41.93;21.93;;;;;;;13.53;80.21;101908.44;124598;1099;103939;-73
2022/10/28 09:03:22;;;;;;;45.07;23.03;;;;;;;13.62;81.15;101909.75;124675;1099;104002;-73
2022/10/28 09:06:01;;;;;;;42.40;23.80;;;;;;;13.68;80.01;101905.58;124610;1099;103945;-73
2022/10/28 09:08:36;;;;;;;43.97;24.37;;;;;;;13.70;79.28;101896.91;124635;1098;104119;-72
2022/10/28 09:11:47;;;;;;;44.00;23.37;;;;;;;13.80;79.50;101900.86;124632;1099;102555;-73
2022/10/28 09:14:38;;;;;;;42.87;22.77;;;;;;;13.93;79.27;101903.22;124653;1099;104551;-72
2022/10/28 09:17:19;;;;;;;45.70;23.83;;;;;;;14.03;80.13;101892.21;124601;1099;104051;-75
2022/10/28 09:19:53;;;;;;;45.67;24.70;;;;;;;14.17;79.41;101899.84;124625;1098;103984;-72
2022/10/28 09:22:30;;;;;;;41.20;25.93;;;;;;;14.28;79.66;101898.56;124539;1099;103764;-73
2022/10/28 09:25:11;;;;;;;41.70;25.70;;;;;;;14.38;78.38;101892.84;124677;1098;102210;-73
2022/10/28 09:27:58;;;;;;;46.57;25.63;;;;;;;14.46;78.13;101890.53;124644;1098;104041;-72
2022/10/28 09:30:46;;;;;;;49.07;26.50;;;;;;;14.52;78.05;101885.50;124644;1099;104092;-72
2022/10/28 09:33:40;;;;;;;43.70;25.17;;;;;;;14.55;76.69;101885.63;124599;1099;104037;-73
2022/10/28 09:36:23;;;;;;;46.67;24.93;;;;;;;14.63;78.27;101880.70;124690;1099;104028;-72
2022/10/28 09:39:00;;;;;;;41.27;24.13;;;;;;;14.77;78.62;101877.70;124731;1099;103839;-72
2022/10/28 09:41:37;;;;;;;43.57;25.97;;;;;;;14.95;77.68;101867.87;124209;1099;104024;-72
2022/10/28 09:44:21;;;;;;;44.40;23.77;;;;;;;15.16;78.39;101874.83;124636;1099;103957;-73
2022/10/28 09:46:58;;;;;;;39.20;22.97;;;;;;;15.25;78.00;101868.19;124675;1099;104054;-73
2022/10/28 09:49:38;;;;;;;41.80;23.43;;;;;;;15.38;77.45;101872.19;124658;1099;102179;-72
2022/10/28 09:52:18;;;;;;;39.70;22.60;;;;;;;15.49;76.95;101862.02;124613;1099;103909;-72
2022/10/28 09:54:52;;;;;;;41.80;22.23;;;;;;;15.57;77.81;101868.48;124678;1099;104034;-72
2022/10/28 09:57:30;;;;;;;46.27;25.33;;;;;;;15.61;76.71;101856.25;124674;1099;104041;-73
2022/10/28 10:00:07;;;;;;;31.75;15.80;;;;;;;15.67;76.46;101853.83;124666;1099;103949;-73
2022/10/28 10:02:44;;;;;;;30.40;14.73;;;;;;;15.71;75.42;101847.81;124669;1099;104432;-73
2022/10/28 10:05:22;;;;;;;30.37;15.07;;;;;;;15.79;76.12;101842.84;124580;1099;103942;-72
2022/10/28 10:08:11;;;;;;;35.92;18.92;;;;;;;15.87;76.17;101843.11;124552;1099;104033;-72
2022/10/28 10:10:53;;;;;;;25.63;11.97;;;;;;;15.96;75.39;101846.08;124810;1099;102201;-74
2022/10/28 10:13:28;;;;;;;20.17;9.60;;;;;;;16.08;75.36;101840.30;124985;1099;104054;-73
2022/10/28 10:16:07;;;;;;;15.17;7.00;;;;;;;16.17;75.50;101840.61;124844;1099;103992;-73
2022/10/28 10:18:45;;;;;;;17.90;7.00;;;;;;;16.25;74.42;101832.92;125026;1098;104037;-74
2022/10/28 10:21:41;;;;;;;16.37;7.03;;;;;;;16.31;73.16;101826.11;124721;1099;104034;-74
2022/10/28 10:24:32;;;;;;;13.37;6.23;;;;;;;16.50;73.87;101822.31;124710;1099;104043;-73
2022/10/28 10:30:04;;;;;;;12.67;6.53;;;;;;;16.57;72.16;101820.75;124648;1099;103948;-73
2022/10/28 10:32:36;;;;;;;12.80;6.03;;;;;;;16.54;71.49;101813.59;124721;1099;102222;-74
2022/10/28 10:35:24;;;;;;;15.40;6.17;;;;;;;16.63;71.98;101810.34;116500;1099;10002084;-74
2022/10/28 10:37:59;;;;;;;11.43;6.20;;;;;;;16.74;72.30;101812.45;124704;1099;103945;-74
2022/10/28 10:40:34;;;;;;;13.23;6.03;;;;;;;16.89;72.35;101811.20;124617;1099;103948;-73
2022/10/28 10:43:29;;;;;;;12.17;5.73;;;;;;;16.91;71.23;101805.94;124675;1099;104009;-72
2022/10/28 10:46:13;;;;;;;14.10;5.90;;;;;;;17.00;71.14;101803.57;124644;1098;102670;-73
2022/10/28 10:48:44;;;;;;;;;;;;;;;17.09;70.11;101802.04;124760;1098;103939;-73
2022/10/28 10:51:28;;;;;;;10.20;5.70;;;;;;;17.10;70.78;101795.89;124661;1099;104047;-73
2022/10/28 10:54:01;;;;;;;13.17;6.07;;;;;;;17.11;70.75;101798.59;124636;1099;104034;-73
2022/10/28 10:56:35;;;;;;;10.17;5.77;;;;;;;17.13;70.68;101793.33;124745;1099;103139;-72
2022/10/28 10:59:20;;;;;;;11.35;5.42;;;;;;;17.14;70.36;101796.03;124643;1099;104002;-73
2022/10/28 11:01:52;;;;;;;15.77;6.33;;;;;;;17.14;69.72;101790.72;125585;1099;104034;-73
2022/10/28 11:04:29;;;;;;;13.87;6.30;;;;;;;17.15;69.69;101787.20;124647;1099;103440;-73
2022/10/28 11:07:04;;;;;;;15.03;6.13;;;;;;;17.18;69.62;101787.28;124787;1099;103913;-72
2022/10/28 11:09:41;;;;;;;10.40;5.53;;;;;;;17.21;69.26;101792.67;124652;1099;104066;-72
2022/10/28 11:12:33;;;;;;;18.17;6.20;;;;;;;17.18;68.96;101776.67;124648;1099;104079;-73
2022/10/28 11:15:23;;;;;;;11.07;5.10;;;;;;;17.15;69.15;101781.89;124605;1099;104112;-73
2022/10/28 11:18:19;;;;;;;13.07;6.13;;;;;;;17.16;68.45;101778.39;124182;1099;104009;-73
2022/10/28 11:21:05;;;;;;;13.27;5.90;;;;;;;17.25;68.42;101777.77;124527;1099;107038;-74
2022/10/28 11:23:55;;;;;;;12.57;5.63;;;;;;;17.33;68.06;101772.69;124718;1099;103970;-74
2022/10/28 11:26:28;;;;;;;12.77;6.03;;;;;;;17.45;68.09;101767.70;124671;1099;104126;-73
2022/10/28 11:29:10;;;;;;;13.18;5.83;;;;;;;17.45;67.56;101761.50;124634;1099;103942;-72
2022/10/28 11:32:09;;;;;;;13.53;6.23;;;;;;;17.48;67.37;101758.93;124641;1099;104067;-73
2022/10/28 11:35:08;;;;;;;16.43;6.70;;;;;;;17.49;67.58;101764.28;124663;1099;104462;-72
2022/10/28 11:37:53;;;;;;;15.03;6.17;;;;;;;17.40;66.74;101756.95;124650;1098;104030;-73
2022/10/28 11:40:33;;;;;;;11.53;6.03;;;;;;;17.40;66.74;101756.06;124751;1099;104047;-73
2022/10/28 11:43:25;;;;;;;19.03;6.30;;;;;;;17.37;66.60;101756.91;124748;1098;103939;-73
2022/10/28 11:46:07;;;;;;;10.73;5.77;;;;;;;17.31;66.26;101742.55;124702;1099;104450;-73